Meath Environmental Platform

Observations for Trim Market St

Time AQI Temp °C Hum % Pres Pa CO μg/m³ H₂S μg/m³ NO μg/m³ NO₂ μg/m³ O₃ μg/m³ SO₂ μg/m³ PM1 μg/m³ PM2.5 μg/m³ PM10 μg/m³
Wednesday 26 August 2026
01:39 2 16.6 85 2,147,483,647 0.32 0 1.47 17.1 32.16 0 6.41 6.54 10.22
01:37 2 16.6 85 2,147,483,647 0.33 0 1.64 15.24 29.23 0 5.7 6.27 9.69
01:34 2 16.6 85 2,147,483,647 0.33 0 1.6 15.07 36.09 0 7.13 7.93 12.91
01:33 2 16.6 85 2,147,483,647 0.32 0 1.6 15.24 35.09 0 5.7 7 11.3
01:28 2 16.6 85 2,147,483,647 0.33 0 1.26 16.18 35.58 0 4.28 5.61 10.22
01:22 2 16.6 85 2,147,483,647 0.35 0 1.29 15.59 31.86 0 7.13 7.94 11.84
01:19 2 16.6 85 2,147,483,647 0.33 0 1.44 17.12 32.4 0 5.7 6.54 11.3
01:18 2 16.6 85 2,147,483,647 0.33 0 1.44 17.77 34.1 0 5.7 6.27 9.15
01:17 2 16.6 85 2,147,483,647 0.33 0 1.44 14.77 31.87 0 5.7 6.27 9.69
01:16 2 16.6 85 2,147,483,647 0.33 0 1.3 14.92 33.67 0 6.41 8.4 13.46
01:15 2 16.6 85 2,147,483,647 0.33 0 1.49 14.77 33.36 0 5.7 6.27 9.15
01:14 2 16.6 85 2,147,483,647 0.33 0 1.45 15.6 32.05 0 5.7 7.01 11.84
01:13 2 16.6 85 2,147,483,647 0.33 0 1.46 15.41 31.92 0 4.28 6.08 9.69
01:12 2 16.6 85 2,147,483,647 0.33 0 1.44 15.25 33.81 0 6.41 7.01 10.77
01:11 2 16.6 85 2,147,483,647 0.33 0 1.37 17.77 34.63 0 5.7 6.08 9.69
01:10 2 16.6 85 2,147,483,647 0.33 0 1.31 15.08 31.67 0 7.13 7.84 10.77
01:09 2 16.6 85 2,147,483,647 0.33 0 1.35 15.59 30.83 0 5.7 6.55 10.23
01:08 2 16.5 85 2,147,483,647 0.33 0 1.32 14.63 30.95 0 5.7 7.48 11.85
01:07 2 16.5 85 2,147,483,647 0.34 0 1.28 17.3 31.45 0 5.7 7.48 11.85
01:06 2 16.5 85 2,147,483,647 0.32 0 1.33 14.63 41.57 0 7.13 7.48 11.85